sensor_id;sensor_type;location;lat;lon;timestamp;P1;durP1;ratioP1;P2;durP2;ratioP2
31298;SDS011;17927;52.350;13.402;2023-07-31T00:02:11;5.13;;;1.73;;
31298;SDS011;17927;52.350;13.402;2023-07-31T00:04:37;2.67;;;1.42;;
31298;SDS011;17927;52.350;13.402;2023-07-31T00:07:02;1.42;;;1.10;;
31298;SDS011;17927;52.350;13.402;2023-07-31T00:09:29;1.38;;;1.25;;
31298;SDS011;17927;52.350;13.402;2023-07-31T00:11:54;2.75;;;1.50;;
31298;SDS011;17927;52.350;13.402;2023-07-31T00:14:19;1.58;;;1.35;;
31298;SDS011;17927;52.350;13.402;2023-07-31T00:16:44;2.78;;;1.05;;
31298;SDS011;17927;52.350;13.402;2023-07-31T00:19:10;2.00;;;1.30;;
31298;SDS011;17927;52.350;13.402;2023-07-31T00:21:35;2.30;;;1.13;;
31298;SDS011;17927;52.350;13.402;2023-07-31T00:24:00;0.95;;;0.95;;
31298;SDS011;17927;52.350;13.402;2023-07-31T00:26:25;1.67;;;1.27;;
31298;SDS011;17927;52.350;13.402;2023-07-31T00:28:51;1.42;;;1.25;;
31298;SDS011;17927;52.350;13.402;2023-07-31T00:31:16;3.05;;;1.90;;
31298;SDS011;17927;52.350;13.402;2023-07-31T00:33:41;1.95;;;1.42;;
31298;SDS011;17927;52.350;13.402;2023-07-31T00:36:06;2.90;;;1.20;;
31298;SDS011;17927;52.350;13.402;2023-07-31T00:38:32;2.13;;;1.40;;
31298;SDS011;17927;52.350;13.402;2023-07-31T00:40:57;1.83;;;1.48;;
31298;SDS011;17927;52.350;13.402;2023-07-31T00:43:22;4.20;;;1.48;;
31298;SDS011;17927;52.350;13.402;2023-07-31T00:45:47;2.05;;;1.52;;
31298;SDS011;17927;52.350;13.402;2023-07-31T00:48:13;1.60;;;1.50;;
31298;SDS011;17927;52.350;13.402;2023-07-31T00:50:38;5.03;;;1.35;;
31298;SDS011;17927;52.350;13.402;2023-07-31T00:53:04;2.80;;;1.38;;
31298;SDS011;17927;52.350;13.402;2023-07-31T00:55:29;2.10;;;1.73;;
31298;SDS011;17927;52.350;13.402;2023-07-31T00:57:55;4.45;;;2.20;;
31298;SDS011;17927;52.350;13.402;2023-07-31T01:00:20;4.45;;;1.67;;
31298;SDS011;17927;52.350;13.402;2023-07-31T01:02:46;4.03;;;2.20;;
31298;SDS011;17927;52.350;13.402;2023-07-31T01:05:12;5.40;;;1.73;;
31298;SDS011;17927;52.350;13.402;2023-07-31T01:07:43;3.72;;;1.60;;
31298;SDS011;17927;52.350;13.402;2023-07-31T01:10:24;3.85;;;1.70;;
31298;SDS011;17927;52.350;13.402;2023-07-31T01:12:55;2.00;;;1.48;;
31298;SDS011;17927;52.350;13.402;2023-07-31T01:15:21;3.35;;;1.50;;
31298;SDS011;17927;52.350;13.402;2023-07-31T01:17:46;1.40;;;1.30;;
31298;SDS011;17927;52.350;13.402;2023-07-31T01:20:13;2.10;;;1.45;;
31298;SDS011;17927;52.350;13.402;2023-07-31T01:26:00;1.98;;;1.52;;
31298;SDS011;17927;52.350;13.402;2023-07-31T01:28:20;1.52;;;1.42;;
31298;SDS011;17927;52.350;13.402;2023-07-31T01:30:52;3.60;;;1.50;;
31298;SDS011;17927;52.350;13.402;2023-07-31T01:33:20;3.80;;;1.20;;
31298;SDS011;17927;52.350;13.402;2023-07-31T01:35:45;7.78;;;1.60;;
31298;SDS011;17927;52.350;13.402;2023-07-31T01:38:13;1.63;;;1.50;;
31298;SDS011;17927;52.350;13.402;2023-07-31T01:40:41;2.17;;;1.58;;
31298;SDS011;17927;52.350;13.402;2023-07-31T01:43:06;5.43;;;1.50;;
31298;SDS011;17927;52.350;13.402;2023-07-31T01:45:32;3.33;;;1.65;;
31298;SDS011;17927;52.350;13.402;2023-07-31T01:47:57;3.28;;;1.92;;
31298;SDS011;17927;52.350;13.402;2023-07-31T01:50:22;3.20;;;1.60;;
31298;SDS011;17927;52.350;13.402;2023-07-31T01:52:47;6.20;;;1.95;;
31298;SDS011;17927;52.350;13.402;2023-07-31T01:55:13;3.05;;;2.00;;
31298;SDS011;17927;52.350;13.402;2023-07-31T01:57:38;2.78;;;1.80;;
31298;SDS011;17927;52.350;13.402;2023-07-31T02:00:03;2.58;;;1.55;;
31298;SDS011;17927;52.350;13.402;2023-07-31T02:02:30;2.97;;;2.08;;
31298;SDS011;17927;52.350;13.402;2023-07-31T02:04:55;3.63;;;1.75;;
31298;SDS011;17927;52.350;13.402;2023-07-31T02:07:20;2.08;;;1.77;;
31298;SDS011;17927;52.350;13.402;2023-07-31T02:09:46;3.80;;;1.88;;
31298;SDS011;17927;52.350;13.402;2023-07-31T02:12:12;4.18;;;1.80;;
31298;SDS011;17927;52.350;13.402;2023-07-31T02:14:39;6.50;;;1.75;;
31298;SDS011;17927;52.350;13.402;2023-07-31T02:17:04;5.38;;;1.80;;
31298;SDS011;17927;52.350;13.402;2023-07-31T02:19:30;3.70;;;1.73;;
31298;SDS011;17927;52.350;13.402;2023-07-31T02:21:55;3.25;;;1.88;;
31298;SDS011;17927;52.350;13.402;2023-07-31T02:24:21;4.45;;;1.88;;
31298;SDS011;17927;52.350;13.402;2023-07-31T02:26:46;1.88;;;1.77;;
31298;SDS011;17927;52.350;13.402;2023-07-31T02:29:11;2.05;;;1.95;;
31298;SDS011;17927;52.350;13.402;2023-07-31T02:31:36;2.05;;;1.88;;
31298;SDS011;17927;52.350;13.402;2023-07-31T02:34:01;4.45;;;1.80;;
31298;SDS011;17927;52.350;13.402;2023-07-31T02:36:27;4.55;;;3.28;;
31298;SDS011;17927;52.350;13.402;2023-07-31T02:38:52;7.93;;;2.13;;
31298;SDS011;17927;52.350;13.402;2023-07-31T02:41:17;3.42;;;1.98;;
31298;SDS011;17927;52.350;13.402;2023-07-31T02:43:42;5.80;;;2.10;;
31298;SDS011;17927;52.350;13.402;2023-07-31T02:46:08;4.75;;;1.98;;
31298;SDS011;17927;52.350;13.402;2023-07-31T02:48:33;4.13;;;2.08;;
31298;SDS011;17927;52.350;13.402;2023-07-31T02:50:58;3.90;;;2.00;;
31298;SDS011;17927;52.350;13.402;2023-07-31T02:53:23;4.20;;;2.17;;
31298;SDS011;17927;52.350;13.402;2023-07-31T02:55:49;4.50;;;2.35;;
31298;SDS011;17927;52.350;13.402;2023-07-31T02:58:14;6.68;;;2.20;;
31298;SDS011;17927;52.350;13.402;2023-07-31T03:00:43;3.42;;;2.10;;
31298;SDS011;17927;52.350;13.402;2023-07-31T03:03:09;2.22;;;1.88;;
31298;SDS011;17927;52.350;13.402;2023-07-31T03:05:34;5.07;;;2.25;;
31298;SDS011;17927;52.350;13.402;2023-07-31T03:07:59;2.50;;;1.85;;
31298;SDS011;17927;52.350;13.402;2023-07-31T03:10:24;3.42;;;1.80;;
31298;SDS011;17927;52.350;13.402;2023-07-31T03:12:50;7.25;;;2.50;;
31298;SDS011;17927;52.350;13.402;2023-07-31T03:15:15;3.00;;;2.22;;
31298;SDS011;17927;52.350;13.402;2023-07-31T03:17:40;6.53;;;2.33;;
31298;SDS011;17927;52.350;13.402;2023-07-31T03:20:06;2.85;;;1.98;;
31298;SDS011;17927;52.350;13.402;2023-07-31T03:22:31;4.70;;;2.03;;
31298;SDS011;17927;52.350;13.402;2023-07-31T03:24:56;6.20;;;1.83;;
31298;SDS011;17927;52.350;13.402;2023-07-31T03:27:22;4.05;;;1.95;;
31298;SDS011;17927;52.350;13.402;2023-07-31T03:29:47;3.97;;;2.20;;
31298;SDS011;17927;52.350;13.402;2023-07-31T03:32:14;2.40;;;2.15;;
31298;SDS011;17927;52.350;13.402;2023-07-31T03:34:40;2.80;;;1.73;;
31298;SDS011;17927;52.350;13.402;2023-07-31T03:37:05;2.88;;;2.28;;
31298;SDS011;17927;52.350;13.402;2023-07-31T03:39:30;2.40;;;2.03;;
31298;SDS011;17927;52.350;13.402;2023-07-31T03:41:56;9.50;;;2.50;;
31298;SDS011;17927;52.350;13.402;2023-07-31T03:44:21;3.05;;;2.25;;
31298;SDS011;17927;52.350;13.402;2023-07-31T03:46:46;6.65;;;2.05;;
31298;SDS011;17927;52.350;13.402;2023-07-31T03:49:12;4.47;;;2.50;;
31298;SDS011;17927;52.350;13.402;2023-07-31T03:51:37;5.05;;;2.35;;
31298;SDS011;17927;52.350;13.402;2023-07-31T03:54:02;3.85;;;2.17;;
31298;SDS011;17927;52.350;13.402;2023-07-31T03:56:27;4.57;;;2.50;;
31298;SDS011;17927;52.350;13.402;2023-07-31T03:58:53;11.73;;;3.00;;
31298;SDS011;17927;52.350;13.402;2023-07-31T04:01:19;2.70;;;2.38;;
31298;SDS011;17927;52.350;13.402;2023-07-31T04:03:44;3.55;;;2.45;;
31298;SDS011;17927;52.350;13.402;2023-07-31T04:06:10;3.45;;;2.10;;
31298;SDS011;17927;52.350;13.402;2023-07-31T04:08:35;4.18;;;2.22;;
31298;SDS011;17927;52.350;13.402;2023-07-31T04:11:00;7.22;;;3.47;;
31298;SDS011;17927;52.350;13.402;2023-07-31T04:13:26;6.85;;;2.40;;
31298;SDS011;17927;52.350;13.402;2023-07-31T04:15:52;5.90;;;2.20;;
31298;SDS011;17927;52.350;13.402;2023-07-31T04:18:19;4.38;;;3.53;;
31298;SDS011;17927;52.350;13.402;2023-07-31T04:20:44;5.05;;;2.50;;
31298;SDS011;17927;52.350;13.402;2023-07-31T04:23:09;2.50;;;2.10;;
31298;SDS011;17927;52.350;13.402;2023-07-31T04:25:35;2.50;;;1.90;;
31298;SDS011;17927;52.350;13.402;2023-07-31T04:28:00;4.40;;;2.20;;
31298;SDS011;17927;52.350;13.402;2023-07-31T04:30:26;3.20;;;2.63;;
31298;SDS011;17927;52.350;13.402;2023-07-31T04:32:51;1.65;;;1.55;;
31298;SDS011;17927;52.350;13.402;2023-07-31T04:35:16;3.50;;;2.22;;
31298;SDS011;17927;52.350;13.402;2023-07-31T04:37:41;4.25;;;2.65;;
31298;SDS011;17927;52.350;13.402;2023-07-31T04:40:07;2.13;;;1.75;;
31298;SDS011;17927;52.350;13.402;2023-07-31T04:42:33;4.00;;;2.45;;
31298;SDS011;17927;52.350;13.402;2023-07-31T04:44:59;5.60;;;2.83;;
31298;SDS011;17927;52.350;13.402;2023-07-31T04:47:24;3.13;;;2.83;;
31298;SDS011;17927;52.350;13.402;2023-07-31T04:49:50;7.93;;;4.88;;
31298;SDS011;17927;52.350;13.402;2023-07-31T04:52:15;5.70;;;2.70;;
31298;SDS011;17927;52.350;13.402;2023-07-31T04:54:40;3.60;;;2.30;;
31298;SDS011;17927;52.350;13.402;2023-07-31T04:57:05;2.03;;;1.80;;
31298;SDS011;17927;52.350;13.402;2023-07-31T04:59:31;5.38;;;2.00;;
31298;SDS011;17927;52.350;13.402;2023-07-31T05:01:56;5.30;;;2.20;;
31298;SDS011;17927;52.350;13.402;2023-07-31T05:04:22;4.35;;;1.80;;
31298;SDS011;17927;52.350;13.402;2023-07-31T05:06:47;5.93;;;2.38;;
31298;SDS011;17927;52.350;13.402;2023-07-31T05:09:12;4.03;;;2.00;;
31298;SDS011;17927;52.350;13.402;2023-07-31T05:11:38;6.20;;;2.17;;
31298;SDS011;17927;52.350;13.402;2023-07-31T05:14:05;3.25;;;1.83;;
31298;SDS011;17927;52.350;13.402;2023-07-31T05:16:30;7.30;;;2.13;;
31298;SDS011;17927;52.350;13.402;2023-07-31T05:18:55;4.18;;;1.73;;
31298;SDS011;17927;52.350;13.402;2023-07-31T05:21:20;6.78;;;2.22;;
31298;SDS011;17927;52.350;13.402;2023-07-31T05:23:46;2.60;;;1.58;;
31298;SDS011;17927;52.350;13.402;2023-07-31T05:26:12;3.70;;;1.90;;
31298;SDS011;17927;52.350;13.402;2023-07-31T05:28:37;4.25;;;1.67;;
31298;SDS011;17927;52.350;13.402;2023-07-31T05:31:03;4.18;;;2.03;;
31298;SDS011;17927;52.350;13.402;2023-07-31T05:33:29;4.38;;;1.95;;
31298;SDS011;17927;52.350;13.402;2023-07-31T05:35:55;5.47;;;1.73;;
31298;SDS011;17927;52.350;13.402;2023-07-31T05:38:21;5.60;;;2.20;;
31298;SDS011;17927;52.350;13.402;2023-07-31T05:40:46;4.60;;;1.90;;
31298;SDS011;17927;52.350;13.402;2023-07-31T05:43:12;3.75;;;1.90;;
31298;SDS011;17927;52.350;13.402;2023-07-31T05:45:37;2.78;;;1.70;;
31298;SDS011;17927;52.350;13.402;2023-07-31T05:48:03;1.80;;;1.58;;
31298;SDS011;17927;52.350;13.402;2023-07-31T05:50:28;7.45;;;2.30;;
31298;SDS011;17927;52.350;13.402;2023-07-31T05:52:53;5.93;;;2.22;;
31298;SDS011;17927;52.350;13.402;2023-07-31T05:55:19;5.28;;;1.90;;
31298;SDS011;17927;52.350;13.402;2023-07-31T05:57:44;4.22;;;1.80;;
31298;SDS011;17927;52.350;13.402;2023-07-31T06:00:11;3.63;;;2.05;;
31298;SDS011;17927;52.350;13.402;2023-07-31T06:02:36;4.72;;;2.03;;
31298;SDS011;17927;52.350;13.402;2023-07-31T06:05:02;5.13;;;1.92;;
31298;SDS011;17927;52.350;13.402;2023-07-31T06:07:30;4.78;;;1.80;;
31298;SDS011;17927;52.350;13.402;2023-07-31T06:09:55;2.10;;;1.90;;
31298;SDS011;17927;52.350;13.402;2023-07-31T06:12:22;6.32;;;2.67;;
31298;SDS011;17927;52.350;13.402;2023-07-31T06:14:47;5.20;;;2.80;;
31298;SDS011;17927;52.350;13.402;2023-07-31T06:17:13;6.70;;;2.72;;
31298;SDS011;17927;52.350;13.402;2023-07-31T06:19:38;1.98;;;1.52;;
31298;SDS011;17927;52.350;13.402;2023-07-31T06:22:03;4.50;;;2.00;;
31298;SDS011;17927;52.350;13.402;2023-07-31T06:24:29;2.95;;;1.85;;
31298;SDS011;17927;52.350;13.402;2023-07-31T06:26:54;5.93;;;2.30;;
31298;SDS011;17927;52.350;13.402;2023-07-31T06:29:20;4.85;;;2.10;;
31298;SDS011;17927;52.350;13.402;2023-07-31T06:31:45;6.20;;;2.03;;
31298;SDS011;17927;52.350;13.402;2023-07-31T06:34:10;3.90;;;1.80;;
31298;SDS011;17927;52.350;13.402;2023-07-31T06:36:36;5.35;;;2.00;;
31298;SDS011;17927;52.350;13.402;2023-07-31T06:39:01;6.13;;;2.03;;
31298;SDS011;17927;52.350;13.402;2023-07-31T06:41:26;7.30;;;2.78;;
31298;SDS011;17927;52.350;13.402;2023-07-31T06:43:51;3.75;;;2.00;;
31298;SDS011;17927;52.350;13.402;2023-07-31T06:46:17;3.63;;;2.40;;
31298;SDS011;17927;52.350;13.402;2023-07-31T06:48:42;3.72;;;1.83;;
31298;SDS011;17927;52.350;13.402;2023-07-31T06:51:07;4.32;;;2.00;;
31298;SDS011;17927;52.350;13.402;2023-07-31T06:53:33;3.42;;;2.15;;
31298;SDS011;17927;52.350;13.402;2023-07-31T06:55:58;5.25;;;2.20;;
31298;SDS011;17927;52.350;13.402;2023-07-31T06:58:23;7.38;;;3.15;;
31298;SDS011;17927;52.350;13.402;2023-07-31T07:00:48;5.00;;;1.73;;
31298;SDS011;17927;52.350;13.402;2023-07-31T07:03:18;3.20;;;1.95;;
31298;SDS011;17927;52.350;13.402;2023-07-31T07:05:43;3.40;;;2.28;;
31298;SDS011;17927;52.350;13.402;2023-07-31T07:08:08;3.90;;;2.10;;
31298;SDS011;17927;52.350;13.402;2023-07-31T07:10:34;5.78;;;2.20;;
31298;SDS011;17927;52.350;13.402;2023-07-31T07:12:59;2.78;;;2.05;;
31298;SDS011;17927;52.350;13.402;2023-07-31T07:15:24;2.95;;;2.00;;
31298;SDS011;17927;52.350;13.402;2023-07-31T07:17:49;5.63;;;2.20;;
31298;SDS011;17927;52.350;13.402;2023-07-31T07:20:15;5.60;;;2.20;;
31298;SDS011;17927;52.350;13.402;2023-07-31T07:22:40;4.35;;;2.05;;
31298;SDS011;17927;52.350;13.402;2023-07-31T07:25:08;4.35;;;2.50;;
31298;SDS011;17927;52.350;13.402;2023-07-31T07:27:33;3.03;;;2.67;;
31298;SDS011;17927;52.350;13.402;2023-07-31T07:29:59;3.72;;;2.40;;
31298;SDS011;17927;52.350;13.402;2023-07-31T07:32:24;3.03;;;2.03;;
31298;SDS011;17927;52.350;13.402;2023-07-31T07:34:49;3.92;;;2.20;;
31298;SDS011;17927;52.350;13.402;2023-07-31T07:37:14;2.80;;;2.17;;
31298;SDS011;17927;52.350;13.402;2023-07-31T07:39:40;2.67;;;2.10;;
31298;SDS011;17927;52.350;13.402;2023-07-31T07:42:06;5.85;;;2.40;;
31298;SDS011;17927;52.350;13.402;2023-07-31T07:44:31;2.88;;;1.80;;
31298;SDS011;17927;52.350;13.402;2023-07-31T07:46:56;2.30;;;2.10;;
31298;SDS011;17927;52.350;13.402;2023-07-31T07:49:22;3.92;;;2.22;;
31298;SDS011;17927;52.350;13.402;2023-07-31T07:51:47;4.85;;;2.33;;
31298;SDS011;17927;52.350;13.402;2023-07-31T07:54:13;2.30;;;2.10;;
31298;SDS011;17927;52.350;13.402;2023-07-31T07:56:38;3.17;;;2.13;;
31298;SDS011;17927;52.350;13.402;2023-07-31T07:59:04;5.68;;;2.38;;
31298;SDS011;17927;52.350;13.402;2023-07-31T08:01:29;5.90;;;2.70;;
31298;SDS011;17927;52.350;13.402;2023-07-31T08:03:54;5.43;;;2.30;;
31298;SDS011;17927;52.350;13.402;2023-07-31T08:06:20;3.70;;;2.28;;
31298;SDS011;17927;52.350;13.402;2023-07-31T08:08:46;4.60;;;2.35;;
31298;SDS011;17927;52.350;13.402;2023-07-31T08:11:11;3.13;;;2.53;;
31298;SDS011;17927;52.350;13.402;2023-07-31T08:13:36;4.00;;;2.58;;
31298;SDS011;17927;52.350;13.402;2023-07-31T08:16:02;5.28;;;2.33;;
31298;SDS011;17927;52.350;13.402;2023-07-31T08:18:28;7.95;;;2.95;;
31298;SDS011;17927;52.350;13.402;2023-07-31T08:20:53;2.97;;;2.17;;
31298;SDS011;17927;52.350;13.402;2023-07-31T08:23:18;2.72;;;2.33;;
31298;SDS011;17927;52.350;13.402;2023-07-31T08:25:44;4.10;;;2.70;;
31298;SDS011;17927;52.350;13.402;2023-07-31T08:28:10;3.95;;;2.25;;
31298;SDS011;17927;52.350;13.402;2023-07-31T08:30:35;4.00;;;2.17;;
31298;SDS011;17927;52.350;13.402;2023-07-31T08:33:00;6.05;;;2.45;;
31298;SDS011;17927;52.350;13.402;2023-07-31T08:35:26;5.75;;;2.08;;
31298;SDS011;17927;52.350;13.402;2023-07-31T08:37:53;4.93;;;2.47;;
31298;SDS011;17927;52.350;13.402;2023-07-31T08:40:18;5.90;;;2.28;;
31298;SDS011;17927;52.350;13.402;2023-07-31T08:42:44;3.55;;;2.40;;
31298;SDS011;17927;52.350;13.402;2023-07-31T08:45:12;3.20;;;2.00;;
31298;SDS011;17927;52.350;13.402;2023-07-31T08:47:40;2.78;;;2.30;;
31298;SDS011;17927;52.350;13.402;2023-07-31T08:50:07;3.75;;;1.90;;
31298;SDS011;17927;52.350;13.402;2023-07-31T08:52:33;3.38;;;1.98;;
31298;SDS011;17927;52.350;13.402;2023-07-31T08:54:59;2.72;;;1.80;;
31298;SDS011;17927;52.350;13.402;2023-07-31T08:57:24;2.55;;;1.88;;
31298;SDS011;17927;52.350;13.402;2023-07-31T08:59:49;1.73;;;1.45;;
31298;SDS011;17927;52.350;13.402;2023-07-31T09:02:15;2.08;;;1.25;;
31298;SDS011;17927;52.350;13.402;2023-07-31T09:04:43;1.50;;;1.15;;
31298;SDS011;17927;52.350;13.402;2023-07-31T09:07:09;1.27;;;1.00;;
31298;SDS011;17927;52.350;13.402;2023-07-31T09:09:35;1.83;;;1.13;;
31298;SDS011;17927;52.350;13.402;2023-07-31T09:12:00;2.80;;;1.00;;
31298;SDS011;17927;52.350;13.402;2023-07-31T09:14:26;1.27;;;0.90;;
31298;SDS011;17927;52.350;13.402;2023-07-31T09:16:55;0.63;;;0.50;;
31298;SDS011;17927;52.350;13.402;2023-07-31T09:19:29;0.75;;;0.57;;
31298;SDS011;17927;52.350;13.402;2023-07-31T09:21:58;1.25;;;0.60;;
31298;SDS011;17927;52.350;13.402;2023-07-31T09:24:27;0.70;;;0.47;;
31298;SDS011;17927;52.350;13.402;2023-07-31T09:26:57;0.50;;;0.50;;
31298;SDS011;17927;52.350;13.402;2023-07-31T09:29:24;1.35;;;0.68;;
31298;SDS011;17927;52.350;13.402;2023-07-31T09:31:51;1.08;;;0.65;;
31298;SDS011;17927;52.350;13.402;2023-07-31T09:34:16;2.28;;;1.15;;
31298;SDS011;17927;52.350;13.402;2023-07-31T09:36:42;0.85;;;0.85;;
31298;SDS011;17927;52.350;13.402;2023-07-31T09:39:09;1.23;;;0.82;;
31298;SDS011;17927;52.350;13.402;2023-07-31T09:41:36;1.27;;;1.00;;
31298;SDS011;17927;52.350;13.402;2023-07-31T09:44:03;2.80;;;1.42;;
31298;SDS011;17927;52.350;13.402;2023-07-31T09:46:28;1.90;;;1.77;;
31298;SDS011;17927;52.350;13.402;2023-07-31T09:49:02;1.42;;;1.33;;
31298;SDS011;17927;52.350;13.402;2023-07-31T09:51:35;2.57;;;1.70;;
31298;SDS011;17927;52.350;13.402;2023-07-31T09:54:04;3.08;;;2.20;;
31298;SDS011;17927;52.350;13.402;2023-07-31T09:56:36;3.85;;;2.97;;
31298;SDS011;17927;52.350;13.402;2023-07-31T09:59:14;4.55;;;2.42;;
31298;SDS011;17927;52.350;13.402;2023-07-31T10:01:41;3.65;;;2.60;;
31298;SDS011;17927;52.350;13.402;2023-07-31T10:04:08;4.97;;;2.30;;
31298;SDS011;17927;52.350;13.402;2023-07-31T10:06:34;4.50;;;2.38;;
31298;SDS011;17927;52.350;13.402;2023-07-31T10:09:02;3.97;;;2.47;;
31298;SDS011;17927;52.350;13.402;2023-07-31T10:11:28;3.00;;;2.30;;
31298;SDS011;17927;52.350;13.402;2023-07-31T10:13:58;4.97;;;2.67;;
31298;SDS011;17927;52.350;13.402;2023-07-31T10:16:24;3.20;;;2.47;;
31298;SDS011;17927;52.350;13.402;2023-07-31T10:18:50;4.22;;;2.78;;
31298;SDS011;17927;52.350;13.402;2023-07-31T10:21:16;4.03;;;2.78;;
31298;SDS011;17927;52.350;13.402;2023-07-31T10:23:42;4.30;;;2.80;;
31298;SDS011;17927;52.350;13.402;2023-07-31T10:26:09;3.72;;;2.80;;
31298;SDS011;17927;52.350;13.402;2023-07-31T10:28:36;2.38;;;2.05;;
31298;SDS011;17927;52.350;13.402;2023-07-31T10:31:02;6.80;;;3.50;;
31298;SDS011;17927;52.350;13.402;2023-07-31T10:33:28;3.08;;;2.67;;
31298;SDS011;17927;52.350;13.402;2023-07-31T10:38:42;4.70;;;2.40;;
31298;SDS011;17927;52.350;13.402;2023-07-31T10:41:08;2.78;;;2.40;;
31298;SDS011;17927;52.350;13.402;2023-07-31T10:43:34;7.35;;;3.83;;
31298;SDS011;17927;52.350;13.402;2023-07-31T10:45:59;5.10;;;2.30;;
31298;SDS011;17927;52.350;13.402;2023-07-31T10:48:24;5.72;;;2.95;;
31298;SDS011;17927;52.350;13.402;2023-07-31T10:50:58;5.07;;;2.55;;
31298;SDS011;17927;52.350;13.402;2023-07-31T10:58:23;4.07;;;2.53;;
31298;SDS011;17927;52.350;13.402;2023-07-31T11:00:48;3.47;;;2.50;;
31298;SDS011;17927;52.350;13.402;2023-07-31T11:03:15;3.08;;;2.50;;
31298;SDS011;17927;52.350;13.402;2023-07-31T11:08:47;3.85;;;2.50;;
31298;SDS011;17927;52.350;13.402;2023-07-31T11:11:14;8.48;;;2.30;;
31298;SDS011;17927;52.350;13.402;2023-07-31T11:16:06;3.90;;;2.47;;
31298;SDS011;17927;52.350;13.402;2023-07-31T11:18:32;2.47;;;2.15;;
31298;SDS011;17927;52.350;13.402;2023-07-31T11:20:57;3.58;;;2.70;;
31298;SDS011;17927;52.350;13.402;2023-07-31T11:23:23;6.25;;;2.45;;
31298;SDS011;17927;52.350;13.402;2023-07-31T11:25:49;3.05;;;2.47;;
31298;SDS011;17927;52.350;13.402;2023-07-31T11:28:15;3.40;;;2.30;;
31298;SDS011;17927;52.350;13.402;2023-07-31T11:30:42;4.35;;;2.58;;
31298;SDS011;17927;52.350;13.402;2023-07-31T11:33:09;4.10;;;2.70;;
31298;SDS011;17927;52.350;13.402;2023-07-31T11:35:40;3.22;;;2.22;;
31298;SDS011;17927;52.350;13.402;2023-07-31T11:38:07;2.88;;;2.28;;
31298;SDS011;17927;52.350;13.402;2023-07-31T11:40:40;3.45;;;2.42;;
31298;SDS011;17927;52.350;13.402;2023-07-31T11:43:06;3.58;;;2.60;;
31298;SDS011;17927;52.350;13.402;2023-07-31T11:45:31;4.15;;;3.05;;
31298;SDS011;17927;52.350;13.402;2023-07-31T11:47:58;3.20;;;2.28;;
31298;SDS011;17927;52.350;13.402;2023-07-31T11:50:23;3.55;;;2.70;;
31298;SDS011;17927;52.350;13.402;2023-07-31T11:52:57;3.17;;;2.45;;
31298;SDS011;17927;52.350;13.402;2023-07-31T11:55:25;4.30;;;2.83;;
31298;SDS011;17927;52.350;13.402;2023-07-31T11:57:51;2.40;;;1.88;;
31298;SDS011;17927;52.350;13.402;2023-07-31T12:00:18;4.70;;;2.33;;
31298;SDS011;17927;52.350;13.402;2023-07-31T12:02:44;2.92;;;2.08;;
31298;SDS011;17927;52.350;13.402;2023-07-31T12:05:12;4.20;;;2.20;;
31298;SDS011;17927;52.350;13.402;2023-07-31T12:10:10;3.63;;;2.45;;
31298;SDS011;17927;52.350;13.402;2023-07-31T12:12:36;4.70;;;2.17;;
31298;SDS011;17927;52.350;13.402;2023-07-31T12:15:01;4.47;;;2.40;;
31298;SDS011;17927;52.350;13.402;2023-07-31T12:17:26;3.63;;;2.22;;
31298;SDS011;17927;52.350;13.402;2023-07-31T12:19:52;4.20;;;2.22;;
31298;SDS011;17927;52.350;13.402;2023-07-31T12:22:17;3.58;;;2.00;;
31298;SDS011;17927;52.350;13.402;2023-07-31T12:24:46;3.60;;;2.30;;
31298;SDS011;17927;52.350;13.402;2023-07-31T12:27:11;2.55;;;1.80;;
31298;SDS011;17927;52.350;13.402;2023-07-31T12:29:37;8.88;;;2.85;;
31298;SDS011;17927;52.350;13.402;2023-07-31T12:32:04;1.35;;;1.25;;
31298;SDS011;17927;52.350;13.402;2023-07-31T12:34:30;3.33;;;1.83;;
31298;SDS011;17927;52.350;13.402;2023-07-31T12:36:56;3.70;;;1.50;;
31298;SDS011;17927;52.350;13.402;2023-07-31T12:39:21;2.65;;;1.40;;
31298;SDS011;17927;52.350;13.402;2023-07-31T12:41:46;2.38;;;1.60;;
31298;SDS011;17927;52.350;13.402;2023-07-31T12:44:11;3.45;;;1.52;;
31298;SDS011;17927;52.350;13.402;2023-07-31T12:46:37;3.90;;;1.73;;
31298;SDS011;17927;52.350;13.402;2023-07-31T12:49:02;1.80;;;1.70;;
31298;SDS011;17927;52.350;13.402;2023-07-31T12:51:27;2.55;;;1.90;;
31298;SDS011;17927;52.350;13.402;2023-07-31T12:53:52;3.50;;;1.73;;
31298;SDS011;17927;52.350;13.402;2023-07-31T12:56:18;2.10;;;1.52;;
31298;SDS011;17927;52.350;13.402;2023-07-31T12:58:43;1.90;;;1.73;;
31298;SDS011;17927;52.350;13.402;2023-07-31T13:01:08;2.83;;;2.28;;
31298;SDS011;17927;52.350;13.402;2023-07-31T13:03:33;4.38;;;2.15;;
31298;SDS011;17927;52.350;13.402;2023-07-31T13:05:59;5.53;;;2.20;;
31298;SDS011;17927;52.350;13.402;2023-07-31T13:08:24;3.03;;;2.00;;
31298;SDS011;17927;52.350;13.402;2023-07-31T13:10:49;3.38;;;2.38;;
31298;SDS011;17927;52.350;13.402;2023-07-31T13:13:14;5.15;;;2.25;;
31298;SDS011;17927;52.350;13.402;2023-07-31T13:15:40;3.13;;;1.95;;
31298;SDS011;17927;52.350;13.402;2023-07-31T13:18:05;4.72;;;3.28;;
31298;SDS011;17927;52.350;13.402;2023-07-31T13:20:30;3.70;;;2.40;;
31298;SDS011;17927;52.350;13.402;2023-07-31T13:22:55;4.75;;;2.10;;
31298;SDS011;17927;52.350;13.402;2023-07-31T13:25:21;4.20;;;2.20;;
31298;SDS011;17927;52.350;13.402;2023-07-31T13:27:46;3.47;;;2.05;;
31298;SDS011;17927;52.350;13.402;2023-07-31T13:30:11;4.10;;;2.47;;
31298;SDS011;17927;52.350;13.402;2023-07-31T13:32:37;3.72;;;2.53;;
31298;SDS011;17927;52.350;13.402;2023-07-31T13:35:05;4.93;;;2.42;;
31298;SDS011;17927;52.350;13.402;2023-07-31T13:37:31;2.58;;;2.38;;
31298;SDS011;17927;52.350;13.402;2023-07-31T13:39:56;3.08;;;2.33;;
31298;SDS011;17927;52.350;13.402;2023-07-31T13:42:21;3.25;;;2.75;;
31298;SDS011;17927;52.350;13.402;2023-07-31T13:44:47;3.13;;;2.28;;
31298;SDS011;17927;52.350;13.402;2023-07-31T13:47:12;4.43;;;2.53;;
31298;SDS011;17927;52.350;13.402;2023-07-31T13:49:38;5.88;;;2.53;;
31298;SDS011;17927;52.350;13.402;2023-07-31T13:52:04;3.83;;;2.80;;
31298;SDS011;17927;52.350;13.402;2023-07-31T13:54:29;3.50;;;2.33;;
31298;SDS011;17927;52.350;13.402;2023-07-31T13:56:55;7.03;;;2.67;;
31298;SDS011;17927;52.350;13.402;2023-07-31T13:59:20;3.67;;;2.45;;
31298;SDS011;17927;52.350;13.402;2023-07-31T14:01:45;6.53;;;2.70;;
31298;SDS011;17927;52.350;13.402;2023-07-31T14:04:11;3.35;;;2.10;;
31298;SDS011;17927;52.350;13.402;2023-07-31T14:06:37;4.63;;;2.50;;
31298;SDS011;17927;52.350;13.402;2023-07-31T14:09:02;4.78;;;2.70;;
31298;SDS011;17927;52.350;13.402;2023-07-31T14:11:27;2.58;;;2.38;;
31298;SDS011;17927;52.350;13.402;2023-07-31T14:13:53;6.18;;;2.78;;
31298;SDS011;17927;52.350;13.402;2023-07-31T14:16:18;3.55;;;2.42;;
31298;SDS011;17927;52.350;13.402;2023-07-31T14:18:43;2.92;;;2.63;;
31298;SDS011;17927;52.350;13.402;2023-07-31T14:21:10;2.78;;;2.42;;
31298;SDS011;17927;52.350;13.402;2023-07-31T14:23:35;7.43;;;3.03;;
31298;SDS011;17927;52.350;13.402;2023-07-31T14:26:01;2.97;;;2.38;;
31298;SDS011;17927;52.350;13.402;2023-07-31T14:28:26;2.75;;;2.45;;
31298;SDS011;17927;52.350;13.402;2023-07-31T14:30:51;2.83;;;2.50;;
31298;SDS011;17927;52.350;13.402;2023-07-31T14:33:17;3.90;;;2.70;;
31298;SDS011;17927;52.350;13.402;2023-07-31T14:35:42;2.38;;;2.17;;
31298;SDS011;17927;52.350;13.402;2023-07-31T14:38:07;5.78;;;2.47;;
31298;SDS011;17927;52.350;13.402;2023-07-31T14:40:32;2.72;;;2.13;;
31298;SDS011;17927;52.350;13.402;2023-07-31T14:42:58;3.17;;;2.60;;
31298;SDS011;17927;52.350;13.402;2023-07-31T14:45:23;3.15;;;2.65;;